Terminal Aerodrome Forecast
Issued by NWS Melbourne, FL

Home | Current Version | Previous Version | Text Only | Print | Product List | Glossary On
Versions: 1 2 3 4 5 6 7 8 9 10 11 12 13 14 15 16 17 18 19 20 21 22 23 24 25 26 27
000
FTUS42 KMLB 300900 AAA
TAFMCO
TAF AMD
KMCO 300902Z 3009/3106 12003KT P6SM SCT250
     FM301400 16005KT P6SM SCT035
     FM301800 12009KT P6SM VCTS SCT040CB BKN100
     FM310000 12004KT P6SM SCT100 BKN250=

USA.gov is the U.S. government's official web portal to all federal, state and local government web resources and services.